ETNS

Schleswig Airport

Germany
METAR ETNS 181320Z AUTO 27007KT 9999 // ////// 03/00 Q1016 ///
Observed Flight Rules
Jan-18 @ 13:20 UTC (28 minutes ago)
Wind Visibility
270° at 7 knots 10,000+ meters
Temperatures Readings
Current 3°C / 37°F
Dewpoint 0°C / 32°F
Humidity 81%
Altimeter 30" Hg
Pressure 1015.92 hPa
Elevation 25
METAR ETNS 181320Z AUTO 27007KT 9999 // ////// 03/00 Q1016 ///
Observed Flight Rules
Jan-18 @ 13:20 UTC
(28 minutes ago)
Wind Visibility
270° at 7 knots 10,000+ meters
Temperature Dewpoint
3°C / 37°F 0°C / 32°F
Humidity Altimeter Pressure
81% 30" Hg 1015.92 hPa